createdAt,value
2019-01-13T00:00:33.940Z,100078.27
2019-01-13T00:03:37.862Z,100078.27
2019-01-13T00:06:41.776Z,100075.50
2019-01-13T00:09:45.795Z,100074.94
2019-01-13T00:12:49.745Z,100067.86
2019-01-13T00:15:53.705Z,100059.66
2019-01-13T00:18:57.673Z,100058.79
2019-01-13T00:22:01.678Z,100065.91
2019-01-13T00:25:06.152Z,100057.95
2019-01-13T00:28:13.874Z,100058.38
2019-01-13T00:31:17.826Z,100051.27
2019-01-13T00:34:21.750Z,100042.42
2019-01-13T00:37:25.778Z,100038.34
2019-01-13T00:40:32.087Z,100033.48
2019-01-13T00:43:36.020Z,100036.48
2019-01-13T00:46:40.030Z,100026.00
2019-01-13T00:49:43.880Z,100026.45
2019-01-13T00:52:47.893Z,100036.17
2019-01-13T00:55:51.829Z,100031.30
2019-01-13T00:58:55.981Z,100032.22
2019-01-13T01:01:59.978Z,100027.95
2019-01-13T01:05:04.546Z,100029.44
2019-01-13T01:08:09.299Z,100022.92
2019-01-13T01:11:14.515Z,100023.84
2019-01-13T01:14:18.530Z,100027.16
2019-01-13T01:17:22.453Z,100027.16
2019-01-13T01:20:26.377Z,100027.77
2019-01-13T01:23:31.600Z,100020.33
2019-01-13T01:26:37.561Z,100024.33
2019-01-13T01:29:41.503Z,100022.53
2019-01-13T01:32:46.625Z,100017.29
2019-01-13T01:35:52.166Z,100021.69
2019-01-13T01:38:56.032Z,100035.95
2019-01-13T01:41:59.867Z,100033.00
2019-01-13T01:45:04.675Z,100032.64
2019-01-13T01:48:08.609Z,100029.61
2019-01-13T01:51:12.437Z,100024.38
2019-01-13T01:54:16.307Z,100034.53
2019-01-13T01:57:20.223Z,100023.98
2019-01-13T02:00:26.538Z,100013.77
2019-01-13T02:03:30.558Z,100014.38
2019-01-13T02:06:34.543Z,100016.66
2019-01-13T02:09:38.476Z,100001.59
2019-01-13T02:12:42.470Z,99999.91
2019-01-13T02:15:46.727Z,100007.83
2019-01-13T02:18:50.719Z,100002.59
2019-01-13T02:21:54.652Z,100002.55
2019-01-13T02:24:58.493Z,100002.20
2019-01-13T02:28:02.484Z,100003.00
2019-01-13T02:31:06.421Z,100006.64
2019-01-13T02:34:10.332Z,99998.72
2019-01-13T02:37:14.273Z,99998.80
2019-01-13T02:40:19.519Z,99986.32
2019-01-13T02:43:23.362Z,99980.25
2019-01-13T02:46:27.310Z,99982.41
2019-01-13T02:49:33.394Z,99977.56
2019-01-13T02:52:37.311Z,99971.81
2019-01-13T02:55:41.204Z,99964.29
2019-01-13T02:58:45.547Z,99951.45
2019-01-13T03:01:49.499Z,99955.23
2019-01-13T03:04:53.749Z,99955.54
2019-01-13T03:07:57.742Z,99944.97
2019-01-13T03:11:01.760Z,99945.23
2019-01-13T03:14:06.147Z,99946.95
2019-01-13T03:17:10.150Z,99934.19
2019-01-13T03:20:14.656Z,99940.25
2019-01-13T03:23:20.955Z,99935.31
2019-01-13T03:26:28.592Z,99941.38
2019-01-13T03:29:32.518Z,99921.93
2019-01-13T03:32:36.375Z,99927.94
2019-01-13T03:35:40.211Z,99918.36
2019-01-13T03:38:44.045Z,99914.73
2019-01-13T03:41:48.194Z,99913.90
2019-01-13T03:44:52.131Z,99904.17
2019-01-13T03:47:56.056Z,99897.47
2019-01-13T03:50:59.966Z,99911.59
2019-01-13T03:54:04.056Z,99893.34
2019-01-13T03:57:08.381Z,99880.37
2019-01-13T04:00:31.505Z,99878.77
2019-01-13T04:03:35.502Z,99867.72
2019-01-13T04:06:41.539Z,99863.27
2019-01-13T04:09:45.385Z,99858.42
2019-01-13T04:12:50.856Z,99848.19
2019-01-13T04:16:04.099Z,99847.70
2019-01-13T04:19:07.954Z,99832.39
2019-01-13T04:22:11.958Z,99834.48
2019-01-13T04:25:15.820Z,99840.20
2019-01-13T04:28:21.926Z,99841.91
2019-01-13T04:31:29.554Z,99827.82
2019-01-13T04:34:33.469Z,99831.78
2019-01-13T04:37:39.789Z,99839.77
2019-01-13T04:40:43.695Z,99834.69
2019-01-13T04:43:47.609Z,99834.59
2019-01-13T04:46:51.529Z,99827.22
2019-01-13T04:49:55.447Z,99826.33
2019-01-13T04:52:59.289Z,99824.41
2019-01-13T04:56:03.297Z,99819.27
2019-01-13T04:59:07.154Z,99812.96
2019-01-13T05:02:11.475Z,99799.58
2019-01-13T05:05:15.525Z,99795.23
2019-01-13T05:08:19.514Z,99794.84
2019-01-13T05:11:23.462Z,99781.98
2019-01-13T05:14:27.298Z,99779.39
2019-01-13T05:17:31.145Z,99777.30
2019-01-13T05:20:35.012Z,99767.23
2019-01-13T05:23:38.859Z,99747.53
2019-01-13T05:26:42.722Z,99738.79
2019-01-13T05:29:46.653Z,99731.43
2019-01-13T05:32:50.773Z,99720.80
2019-01-13T05:35:54.643Z,99710.41
2019-01-13T05:38:58.486Z,99709.16
2019-01-13T05:42:02.320Z,99697.70
2019-01-13T05:45:07.215Z,99693.65
2019-01-13T05:48:11.201Z,99688.91
2019-01-13T05:51:15.766Z,99674.45
2019-01-13T05:54:19.628Z,99672.63
2019-01-13T05:57:23.550Z,99669.52
2019-01-13T06:00:30.739Z,99668.17
2019-01-13T06:03:37.004Z,99662.45
2019-01-13T06:06:41.024Z,99657.57
2019-01-13T06:09:45.034Z,99653.66
2019-01-13T06:12:49.148Z,99645.48
2019-01-13T06:15:53.076Z,99632.33
2019-01-13T06:18:57.042Z,99617.86
2019-01-13T06:22:01.020Z,99618.69
2019-01-13T06:25:05.537Z,99610.20
2019-01-13T06:28:09.471Z,99596.63
2019-01-13T06:31:13.478Z,99589.97
2019-01-13T06:34:17.925Z,99585.56
2019-01-13T06:37:21.771Z,99571.88
2019-01-13T06:40:27.893Z,99569.12
2019-01-13T06:43:31.786Z,99553.76
2019-01-13T06:46:35.703Z,99547.98
2019-01-13T06:49:40.146Z,99531.27
2019-01-13T06:52:44.250Z,99518.06
2019-01-13T06:55:50.261Z,99517.30
2019-01-13T06:58:54.086Z,99501.97
2019-01-13T07:02:03.513Z,99501.64
2019-01-13T07:05:06.703Z,99491.52
2019-01-13T07:08:10.535Z,99489.95
2019-01-13T07:11:14.451Z,99489.64
2019-01-13T07:14:18.389Z,99474.67
2019-01-13T07:17:22.333Z,99475.37
2019-01-13T07:20:26.238Z,99463.97
2019-01-13T07:23:30.174Z,99466.58
2019-01-13T07:26:34.091Z,99449.23
2019-01-13T07:29:37.929Z,99446.16
2019-01-13T07:32:41.843Z,99437.72
2019-01-13T07:35:45.763Z,99441.17
2019-01-13T07:38:49.598Z,99435.41
2019-01-13T07:41:53.450Z,99429.53
2019-01-13T07:44:57.409Z,99421.61
2019-01-13T07:48:01.249Z,99400.53
2019-01-13T07:51:05.279Z,99389.52
2019-01-13T07:54:09.233Z,99379.41
2019-01-13T07:57:13.130Z,99384.23
2019-01-13T08:00:22.382Z,99377.86
2019-01-13T08:03:27.489Z,99369.70
2019-01-13T08:06:31.424Z,99361.35
2019-01-13T08:09:35.269Z,99349.47
2019-01-13T08:12:39.111Z,99352.62
2019-01-13T08:15:44.317Z,99344.99
2019-01-13T08:18:48.167Z,99333.46
2019-01-13T08:21:52.148Z,99326.70
2019-01-13T08:24:56.037Z,99326.19
2019-01-13T08:28:02.094Z,99320.69
2019-01-13T08:31:06.154Z,99317.30
2019-01-13T08:34:13.510Z,99299.10
2019-01-13T08:37:17.401Z,99291.63
2019-01-13T08:40:22.943Z,99287.44
2019-01-13T08:43:26.960Z,99279.19
2019-01-13T08:46:30.814Z,99286.54
2019-01-13T08:49:34.999Z,99274.70
2019-01-13T08:52:38.848Z,99265.35
2019-01-13T08:55:42.843Z,99265.05
2019-01-13T08:58:46.695Z,99264.20
2019-01-13T09:01:50.544Z,99254.36
2019-01-13T09:04:55.990Z,99249.70
2019-01-13T09:07:59.974Z,99238.25
2019-01-13T09:11:03.894Z,99241.24
2019-01-13T09:14:07.812Z,99247.86
2019-01-13T09:17:11.798Z,99239.22
2019-01-13T09:20:27.156Z,99235.47
2019-01-13T09:23:31.078Z,99232.55
2019-01-13T09:26:35.101Z,99221.92
2019-01-13T09:29:42.520Z,99225.55
2019-01-13T09:32:44.880Z,99217.89
2019-01-13T09:35:48.971Z,99215.23
2019-01-13T09:38:52.953Z,99218.80
2019-01-13T09:41:56.879Z,99212.14
2019-01-13T09:45:00.826Z,99211.80
2019-01-13T09:48:05.024Z,99206.95
2019-01-13T09:51:08.969Z,99195.56
2019-01-13T09:54:12.921Z,99186.87
2019-01-13T09:57:18.727Z,99181.58
2019-01-13T10:00:33.725Z,99180.59
2019-01-13T10:03:37.746Z,99177.16
2019-01-13T10:06:41.598Z,99176.17
2019-01-13T10:09:45.555Z,99165.84
2019-01-13T10:12:49.523Z,99164.47
2019-01-13T10:16:00.475Z,99153.95
2019-01-13T10:19:04.913Z,99155.73
2019-01-13T10:22:08.866Z,99149.98
2019-01-13T10:25:13.698Z,99133.17
2019-01-13T10:28:17.701Z,99135.78
2019-01-13T10:31:21.704Z,99119.45
2019-01-13T10:34:28.114Z,99109.31
2019-01-13T10:37:32.141Z,99107.58
2019-01-13T10:40:36.061Z,99098.31
2019-01-13T10:43:40.064Z,99079.87
2019-01-13T10:46:44.451Z,99072.61
2019-01-13T10:49:50.190Z,99055.41
2019-01-13T10:52:56.366Z,99053.29
2019-01-13T10:56:05.535Z,99045.66
2019-01-13T10:59:12.659Z,99039.83
2019-01-13T11:02:16.589Z,99028.17
2019-01-13T11:05:22.360Z,99020.95
2019-01-13T11:08:26.719Z,99026.25
2019-01-13T11:11:30.710Z,99022.95
2019-01-13T11:14:34.660Z,99021.22
2019-01-13T11:17:38.680Z,99006.91
2019-01-13T11:20:42.537Z,99015.60
2019-01-13T11:23:49.983Z,99015.78
2019-01-13T11:26:53.943Z,99000.51
2019-01-13T11:29:57.806Z,98991.95
2019-01-13T11:33:09.101Z,98999.74
2019-01-13T11:36:10.863Z,98980.63
2019-01-13T11:39:15.249Z,98964.58
2019-01-13T11:42:19.288Z,98978.31
2019-01-13T11:45:23.522Z,98976.73
2019-01-13T11:48:27.394Z,98954.23
2019-01-13T11:51:31.410Z,98951.58
2019-01-13T11:54:35.289Z,98945.38
2019-01-13T11:57:39.942Z,98936.72
2019-01-13T12:00:47.538Z,98923.53
2019-01-13T12:03:51.495Z,98926.92
2019-01-13T12:06:55.447Z,98905.84
2019-01-13T12:09:59.420Z,98913.24
2019-01-13T12:13:06.088Z,98905.42
2019-01-13T12:16:10.060Z,98908.14
2019-01-13T12:19:13.936Z,98904.72
2019-01-13T12:22:20.036Z,98880.80
2019-01-13T12:25:24.648Z,98883.62
2019-01-13T12:28:28.816Z,98864.08
2019-01-13T12:31:35.808Z,98850.95
2019-01-13T12:34:39.827Z,98854.71
2019-01-13T12:37:43.839Z,98848.70
2019-01-13T12:40:47.777Z,98829.69
2019-01-13T12:43:51.642Z,98828.20
2019-01-13T12:46:55.510Z,98832.98
2019-01-13T12:49:59.539Z,98813.75
2019-01-13T12:53:03.572Z,98820.09
2019-01-13T12:56:07.528Z,98822.49
2019-01-13T12:59:11.399Z,98819.27
2019-01-13T13:02:15.654Z,98803.69
2019-01-13T13:05:19.693Z,98804.48
2019-01-13T13:08:23.639Z,98825.56
2019-01-13T13:11:27.613Z,98820.43
2019-01-13T13:14:33.991Z,98809.91
2019-01-13T13:17:38.534Z,98803.23
2019-01-13T13:20:42.476Z,98802.78
2019-01-13T13:23:46.379Z,98805.29
2019-01-13T13:26:50.326Z,98813.33
2019-01-13T13:29:54.161Z,98801.10
2019-01-13T13:33:01.421Z,98788.50
2019-01-13T13:36:07.314Z,98791.92
2019-01-13T13:39:14.412Z,98777.59
2019-01-13T13:42:21.492Z,98786.21
2019-01-13T13:45:25.520Z,98751.63
2019-01-13T13:48:29.549Z,98739.48
2019-01-13T13:51:33.458Z,98738.28
2019-01-13T13:54:37.467Z,98730.33
2019-01-13T13:57:41.475Z,98730.36
2019-01-13T14:00:46.158Z,98725.16
2019-01-13T14:03:50.107Z,98723.42
2019-01-13T14:06:54.003Z,98720.33
2019-01-13T14:09:57.940Z,98711.89
2019-01-13T14:13:01.989Z,98705.37
2019-01-13T14:16:06.049Z,98704.05
2019-01-13T14:19:10.031Z,98697.80
2019-01-13T14:22:13.932Z,98683.69
2019-01-13T14:25:21.116Z,98676.14
2019-01-13T14:28:25.171Z,98649.16
2019-01-13T14:31:29.201Z,98669.94
2019-01-13T14:34:33.144Z,98657.77
2019-01-13T14:37:37.071Z,98657.12
2019-01-13T14:40:42.590Z,98663.45
2019-01-13T14:43:46.518Z,98646.41
2019-01-13T14:46:50.415Z,98633.03
2019-01-13T14:49:54.271Z,98640.42
2019-01-13T14:52:58.293Z,98614.79
2019-01-13T14:56:02.366Z,98617.84
2019-01-13T14:59:06.712Z,98613.34
2019-01-13T15:02:10.571Z,98609.91
2019-01-13T15:05:14.652Z,98605.95
2019-01-13T15:08:18.701Z,98592.34
2019-01-13T15:11:22.610Z,98601.41
2019-01-13T15:14:28.379Z,98597.38
2019-01-13T15:17:35.077Z,98595.67
2019-01-13T15:20:40.609Z,98596.05
2019-01-13T15:23:44.649Z,98576.56
2019-01-13T15:26:50.722Z,98580.40
2019-01-13T15:29:56.616Z,98571.85
2019-01-13T15:33:00.641Z,98570.41
2019-01-13T15:36:06.559Z,98569.70
2019-01-13T15:39:10.511Z,98556.33
2019-01-13T15:42:14.751Z,98571.02
2019-01-13T15:45:18.984Z,98572.75
2019-01-13T15:48:22.955Z,98576.71
2019-01-13T15:51:26.990Z,98576.71
2019-01-13T15:54:30.979Z,98571.42
2019-01-13T15:57:35.028Z,98570.48
2019-01-13T16:00:39.517Z,98555.16
2019-01-13T16:03:43.438Z,98574.82
2019-01-13T16:06:49.412Z,98566.44
2019-01-13T16:09:53.355Z,98566.98
2019-01-13T16:12:58.057Z,98556.08
2019-01-13T16:16:04.532Z,98553.11
2019-01-13T16:19:10.750Z,98558.31
2019-01-13T16:22:14.980Z,98557.61
2019-01-13T16:25:19.016Z,98548.74
2019-01-13T16:28:22.975Z,98552.78
2019-01-13T16:31:26.927Z,98556.91
2019-01-13T16:34:30.868Z,98553.57
2019-01-13T16:37:34.797Z,98547.05
2019-01-13T16:40:38.806Z,98545.07
2019-01-13T16:43:44.154Z,98534.96
2019-01-13T16:46:48.084Z,98541.64
2019-01-13T16:49:52.063Z,98528.98
2019-01-13T16:52:57.430Z,98535.98
2019-01-13T16:56:01.398Z,98547.80
2019-01-13T16:59:05.643Z,98545.61
2019-01-13T17:02:09.582Z,98538.58
2019-01-13T17:05:15.107Z,98536.91
2019-01-13T17:08:19.325Z,98548.83
2019-01-13T17:11:26.141Z,98551.06
2019-01-13T17:14:30.374Z,98549.62
2019-01-13T17:17:37.392Z,98532.08
2019-01-13T17:20:41.374Z,98537.36
2019-01-13T17:23:45.306Z,98497.73
2019-01-13T17:26:49.371Z,98556.17
2019-01-13T17:29:53.366Z,98560.84
2019-01-13T17:32:57.386Z,98566.13
2019-01-13T17:36:04.136Z,98567.16
2019-01-13T17:39:09.600Z,98584.50
2019-01-13T17:42:13.676Z,98582.08
2019-01-13T17:45:18.829Z,98568.06
2019-01-13T17:48:22.794Z,98572.84
2019-01-13T17:51:28.890Z,98564.16
2019-01-13T17:54:32.913Z,98556.83
2019-01-13T17:57:37.086Z,98569.41
2019-01-13T18:01:12.494Z,98574.56
2019-01-13T18:04:16.662Z,98560.94
2019-01-13T18:07:23.550Z,98562.38
2019-01-13T18:10:27.571Z,98558.17
2019-01-13T18:13:31.527Z,98575.33
2019-01-13T18:16:35.466Z,98577.59
2019-01-13T18:19:39.343Z,98561.88
2019-01-13T18:22:47.100Z,98568.30
2019-01-13T18:25:51.132Z,98578.26
2019-01-13T18:28:55.206Z,98577.27
2019-01-13T18:31:59.130Z,98578.57
2019-01-13T18:35:03.211Z,98603.25
2019-01-13T18:38:09.210Z,98590.65
2019-01-13T18:41:17.307Z,98603.31
2019-01-13T18:44:21.180Z,98593.81
2019-01-13T18:47:25.161Z,98611.09
2019-01-13T18:50:29.078Z,98616.06
2019-01-13T18:53:33.106Z,98620.48
2019-01-13T18:56:37.147Z,98630.02
2019-01-13T18:59:41.034Z,98638.08
2019-01-13T19:02:45.465Z,98617.17
2019-01-13T19:05:51.222Z,98642.75
2019-01-13T19:08:58.279Z,98633.25
2019-01-13T19:12:04.608Z,98644.44
2019-01-13T19:15:09.758Z,98651.63
2019-01-13T19:18:17.481Z,98653.91
2019-01-13T19:21:21.694Z,98652.32
2019-01-13T19:24:28.613Z,98659.88
2019-01-13T19:27:32.655Z,98664.12
2019-01-13T19:30:38.760Z,98666.98
2019-01-13T19:33:44.656Z,98668.98
2019-01-13T19:36:48.758Z,98690.63
2019-01-13T19:39:52.710Z,98696.16
2019-01-13T19:42:56.764Z,98699.31
2019-01-13T19:46:00.808Z,98721.39
2019-01-13T19:49:12.098Z,98739.52
2019-01-13T19:52:16.268Z,98732.87
2019-01-13T19:55:20.639Z,98739.00
2019-01-13T19:58:24.840Z,98752.46
2019-01-13T20:01:29.093Z,98746.04
2019-01-13T20:04:33.282Z,98781.94
2019-01-13T20:07:38.501Z,98774.71
2019-01-13T20:10:42.583Z,98792.37
2019-01-13T20:13:46.702Z,98789.95
2019-01-13T20:16:50.823Z,98784.08
2019-01-13T20:19:54.966Z,98811.52
2019-01-13T20:22:59.077Z,98812.17
2019-01-13T20:26:03.250Z,98821.45
2019-01-13T20:29:07.401Z,98836.53
2019-01-13T20:32:11.761Z,98834.55
2019-01-13T20:35:19.614Z,98843.56
2019-01-13T20:38:26.899Z,98868.62
2019-01-13T20:41:33.738Z,98871.47
2019-01-13T20:44:37.664Z,98852.30
2019-01-13T20:47:45.646Z,98866.45
2019-01-13T20:50:49.820Z,98870.23
2019-01-13T20:53:53.942Z,98886.86
2019-01-13T20:56:58.125Z,98874.39
2019-01-13T21:00:04.374Z,98892.32
2019-01-13T21:03:09.123Z,98916.98
2019-01-13T21:06:13.172Z,98903.31
2019-01-13T21:09:20.055Z,98926.11
2019-01-13T21:12:28.735Z,98917.56
2019-01-13T21:15:37.219Z,98936.83
2019-01-13T21:18:49.483Z,98945.36
2019-01-13T21:21:53.523Z,98959.25
2019-01-13T21:24:59.644Z,98946.17
2019-01-13T21:28:03.977Z,98968.07
2019-01-13T21:31:14.024Z,98975.52
2019-01-13T21:34:18.052Z,98989.95
2019-01-13T21:37:22.008Z,98994.59
2019-01-13T21:40:25.958Z,98995.41
2019-01-13T21:43:30.022Z,99005.30
2019-01-13T21:46:36.979Z,99015.99
2019-01-13T21:49:40.922Z,99014.52
2019-01-13T21:52:47.482Z,99044.75
2019-01-13T21:55:51.450Z,99041.83
2019-01-13T21:58:55.450Z,99051.66
2019-01-13T22:01:59.392Z,99055.85
2019-01-13T22:05:03.598Z,99051.96
2019-01-13T22:08:07.624Z,99068.85
2019-01-13T22:11:11.829Z,99079.45
2019-01-13T22:14:15.688Z,99087.48
2019-01-13T22:17:19.549Z,99095.16
2019-01-13T22:20:24.179Z,99082.12
2019-01-13T22:23:28.119Z,99095.60
2019-01-13T22:26:32.424Z,99098.02
2019-01-13T22:29:38.633Z,99111.59
2019-01-13T22:32:42.571Z,99127.14
2019-01-13T22:35:48.314Z,99134.91
2019-01-13T22:38:52.121Z,99136.18
2019-01-13T22:41:56.131Z,99158.39
2019-01-13T22:44:59.995Z,99166.48
2019-01-13T22:48:03.856Z,99175.24
2019-01-13T22:51:07.827Z,99166.88
2019-01-13T22:54:11.771Z,99190.86
2019-01-13T22:57:15.679Z,99194.52
2019-01-13T23:00:54.660Z,99211.25
2019-01-13T23:04:05.274Z,99224.67
2019-01-13T23:07:09.289Z,99230.28
2019-01-13T23:10:13.233Z,99249.65
2019-01-13T23:13:17.577Z,99240.35
2019-01-13T23:16:26.103Z,99250.48
2019-01-13T23:19:30.125Z,99274.53
2019-01-13T23:22:34.141Z,99279.73
2019-01-13T23:25:37.986Z,99288.59
2019-01-13T23:28:41.990Z,99290.88
2019-01-13T23:31:46.032Z,99299.93
2019-01-13T23:34:50.018Z,99314.86
2019-01-13T23:37:53.984Z,99319.77
2019-01-13T23:40:57.922Z,99326.95
2019-01-13T23:44:01.811Z,99331.73
2019-01-13T23:47:05.763Z,99322.23
2019-01-13T23:50:09.858Z,99335.11
2019-01-13T23:53:13.852Z,99338.66
2019-01-13T23:56:19.631Z,99344.87
2019-01-13T23:59:24.861Z,99360.24
